sensor_id;sensor_type;location;lat;lon;timestamp;temperature;humidity
7572;DHT22;3827;49.928;8.548;2022-10-16T00:00:22;15.00;99.90
7572;DHT22;3827;49.928;8.548;2022-10-16T00:02:49;15.00;99.90
7572;DHT22;3827;49.928;8.548;2022-10-16T00:05:15;15.00;99.90
7572;DHT22;3827;49.928;8.548;2022-10-16T00:07:42;15.00;99.90
7572;DHT22;3827;49.928;8.548;2022-10-16T00:10:09;15.00;99.90
7572;DHT22;3827;49.928;8.548;2022-10-16T00:12:37;15.00;99.90
7572;DHT22;3827;49.928;8.548;2022-10-16T00:15:05;15.00;99.90
7572;DHT22;3827;49.928;8.548;2022-10-16T00:17:32;15.00;99.90
7572;DHT22;3827;49.928;8.548;2022-10-16T00:19:59;15.10;99.90
7572;DHT22;3827;49.928;8.548;2022-10-16T00:22:26;15.00;99.90
7572;DHT22;3827;49.928;8.548;2022-10-16T00:24:53;15.10;99.90
7572;DHT22;3827;49.928;8.548;2022-10-16T00:27:20;15.00;99.90
7572;DHT22;3827;49.928;8.548;2022-10-16T00:29:51;15.00;99.90
7572;DHT22;3827;49.928;8.548;2022-10-16T00:32:18;15.00;99.90
7572;DHT22;3827;49.928;8.548;2022-10-16T00:34:46;15.00;99.90
7572;DHT22;3827;49.928;8.548;2022-10-16T00:37:13;15.00;99.90
7572;DHT22;3827;49.928;8.548;2022-10-16T00:39:40;15.10;99.90
7572;DHT22;3827;49.928;8.548;2022-10-16T00:42:09;15.00;99.90
7572;DHT22;3827;49.928;8.548;2022-10-16T00:44:45;15.10;99.90
7572;DHT22;3827;49.928;8.548;2022-10-16T00:47:17;15.10;99.90
7572;DHT22;3827;49.928;8.548;2022-10-16T00:49:46;15.10;99.90
7572;DHT22;3827;49.928;8.548;2022-10-16T00:52:14;15.10;99.90
7572;DHT22;3827;49.928;8.548;2022-10-16T00:54:41;15.10;99.90
7572;DHT22;3827;49.928;8.548;2022-10-16T00:57:09;15.10;99.90
7572;DHT22;3827;49.928;8.548;2022-10-16T00:59:38;15.30;99.90
7572;DHT22;3827;49.928;8.548;2022-10-16T01:02:06;15.10;99.90
7572;DHT22;3827;49.928;8.548;2022-10-16T01:04:37;15.30;99.90
7572;DHT22;3827;49.928;8.548;2022-10-16T01:07:12;15.10;99.90
7572;DHT22;3827;49.928;8.548;2022-10-16T01:09:50;15.10;99.90
7572;DHT22;3827;49.928;8.548;2022-10-16T01:12:27;15.10;99.90
7572;DHT22;3827;49.928;8.548;2022-10-16T01:15:01;15.00;99.90
7572;DHT22;3827;49.928;8.548;2022-10-16T01:17:34;15.10;99.90
7572;DHT22;3827;49.928;8.548;2022-10-16T01:20:08;15.00;99.90
7572;DHT22;3827;49.928;8.548;2022-10-16T01:22:43;15.00;99.90
7572;DHT22;3827;49.928;8.548;2022-10-16T01:25:21;15.00;99.90
7572;DHT22;3827;49.928;8.548;2022-10-16T01:27:51;15.00;99.90
7572;DHT22;3827;49.928;8.548;2022-10-16T01:30:22;14.90;99.90
7572;DHT22;3827;49.928;8.548;2022-10-16T01:32:52;14.90;99.90
7572;DHT22;3827;49.928;8.548;2022-10-16T01:35:25;14.80;99.90
7572;DHT22;3827;49.928;8.548;2022-10-16T01:37:56;14.90;99.90
7572;DHT22;3827;49.928;8.548;2022-10-16T01:40:27;14.80;99.90
7572;DHT22;3827;49.928;8.548;2022-10-16T01:42:59;14.80;99.90
7572;DHT22;3827;49.928;8.548;2022-10-16T01:45:28;14.80;99.90
7572;DHT22;3827;49.928;8.548;2022-10-16T01:47:57;14.80;99.90
7572;DHT22;3827;49.928;8.548;2022-10-16T01:50:24;14.70;99.90
7572;DHT22;3827;49.928;8.548;2022-10-16T01:52:55;14.70;99.90
7572;DHT22;3827;49.928;8.548;2022-10-16T01:55:28;14.70;99.90
7572;DHT22;3827;49.928;8.548;2022-10-16T01:57:59;14.70;99.90
7572;DHT22;3827;49.928;8.548;2022-10-16T02:00:27;14.70;99.90
7572;DHT22;3827;49.928;8.548;2022-10-16T02:02:55;14.70;99.90
7572;DHT22;3827;49.928;8.548;2022-10-16T02:05:27;14.70;99.90
7572;DHT22;3827;49.928;8.548;2022-10-16T02:07:55;14.70;99.90
7572;DHT22;3827;49.928;8.548;2022-10-16T02:10:23;14.80;99.90
7572;DHT22;3827;49.928;8.548;2022-10-16T02:12:56;14.80;99.90
7572;DHT22;3827;49.928;8.548;2022-10-16T02:15:25;14.80;99.90
7572;DHT22;3827;49.928;8.548;2022-10-16T02:17:52;14.90;99.90
7572;DHT22;3827;49.928;8.548;2022-10-16T02:20:25;14.90;99.90
7572;DHT22;3827;49.928;8.548;2022-10-16T02:22:54;14.90;99.90
7572;DHT22;3827;49.928;8.548;2022-10-16T02:25:26;14.90;99.90
7572;DHT22;3827;49.928;8.548;2022-10-16T02:28:01;14.90;99.90
7572;DHT22;3827;49.928;8.548;2022-10-16T02:30:34;14.90;99.90
7572;DHT22;3827;49.928;8.548;2022-10-16T02:33:05;14.90;99.90
7572;DHT22;3827;49.928;8.548;2022-10-16T02:35:34;14.90;99.90
7572;DHT22;3827;49.928;8.548;2022-10-16T02:38:02;14.90;99.90
7572;DHT22;3827;49.928;8.548;2022-10-16T02:40:29;14.90;99.90
7572;DHT22;3827;49.928;8.548;2022-10-16T02:42:57;14.90;99.90
7572;DHT22;3827;49.928;8.548;2022-10-16T02:45:24;15.00;99.90
7572;DHT22;3827;49.928;8.548;2022-10-16T02:47:52;15.00;99.90
7572;DHT22;3827;49.928;8.548;2022-10-16T02:50:19;15.00;99.90
7572;DHT22;3827;49.928;8.548;2022-10-16T02:52:46;15.00;99.90
7572;DHT22;3827;49.928;8.548;2022-10-16T02:55:13;15.00;99.90
7572;DHT22;3827;49.928;8.548;2022-10-16T02:57:39;15.00;99.90
7572;DHT22;3827;49.928;8.548;2022-10-16T03:00:08;15.00;99.90
7572;DHT22;3827;49.928;8.548;2022-10-16T03:02:35;15.00;99.90
7572;DHT22;3827;49.928;8.548;2022-10-16T03:05:04;15.00;99.90
7572;DHT22;3827;49.928;8.548;2022-10-16T03:07:31;15.00;99.90
7572;DHT22;3827;49.928;8.548;2022-10-16T03:09:57;15.00;99.90
7572;DHT22;3827;49.928;8.548;2022-10-16T03:12:25;15.10;99.90
7572;DHT22;3827;49.928;8.548;2022-10-16T03:14:52;15.10;99.90
7572;DHT22;3827;49.928;8.548;2022-10-16T03:17:19;15.10;99.90
7572;DHT22;3827;49.928;8.548;2022-10-16T03:19:46;15.10;99.90
7572;DHT22;3827;49.928;8.548;2022-10-16T03:22:14;15.10;99.90
7572;DHT22;3827;49.928;8.548;2022-10-16T03:24:41;15.10;99.90
7572;DHT22;3827;49.928;8.548;2022-10-16T03:27:08;15.10;99.90
7572;DHT22;3827;49.928;8.548;2022-10-16T03:29:35;15.10;99.90
7572;DHT22;3827;49.928;8.548;2022-10-16T03:32:02;15.10;99.90
7572;DHT22;3827;49.928;8.548;2022-10-16T03:34:28;15.10;99.90
7572;DHT22;3827;49.928;8.548;2022-10-16T03:36:55;15.10;99.90
7572;DHT22;3827;49.928;8.548;2022-10-16T03:39:23;15.10;99.90
7572;DHT22;3827;49.928;8.548;2022-10-16T03:41:50;15.10;99.90
7572;DHT22;3827;49.928;8.548;2022-10-16T03:44:17;15.20;99.90
7572;DHT22;3827;49.928;8.548;2022-10-16T03:46:44;15.20;99.90
7572;DHT22;3827;49.928;8.548;2022-10-16T03:49:11;15.20;99.90
7572;DHT22;3827;49.928;8.548;2022-10-16T03:51:37;15.10;99.90
7572;DHT22;3827;49.928;8.548;2022-10-16T03:54:04;15.20;99.90
7572;DHT22;3827;49.928;8.548;2022-10-16T03:56:32;15.20;99.90
7572;DHT22;3827;49.928;8.548;2022-10-16T03:58:59;15.20;99.90
7572;DHT22;3827;49.928;8.548;2022-10-16T04:01:26;15.20;99.90
7572;DHT22;3827;49.928;8.548;2022-10-16T04:03:53;15.20;99.90
7572;DHT22;3827;49.928;8.548;2022-10-16T04:06:19;15.10;99.90
7572;DHT22;3827;49.928;8.548;2022-10-16T04:08:46;15.20;99.90
7572;DHT22;3827;49.928;8.548;2022-10-16T04:11:13;15.20;99.90
7572;DHT22;3827;49.928;8.548;2022-10-16T04:13:41;15.10;99.90
7572;DHT22;3827;49.928;8.548;2022-10-16T04:16:09;15.10;99.90
7572;DHT22;3827;49.928;8.548;2022-10-16T04:18:36;15.10;99.90
7572;DHT22;3827;49.928;8.548;2022-10-16T04:21:03;15.10;99.90
7572;DHT22;3827;49.928;8.548;2022-10-16T04:23:30;15.10;99.90
7572;DHT22;3827;49.928;8.548;2022-10-16T04:25:57;15.20;99.90
7572;DHT22;3827;49.928;8.548;2022-10-16T04:28:24;15.20;99.90
7572;DHT22;3827;49.928;8.548;2022-10-16T04:30:52;15.20;99.90
7572;DHT22;3827;49.928;8.548;2022-10-16T04:33:19;15.20;99.90
7572;DHT22;3827;49.928;8.548;2022-10-16T04:35:46;15.20;99.90
7572;DHT22;3827;49.928;8.548;2022-10-16T04:38:12;15.20;99.90
7572;DHT22;3827;49.928;8.548;2022-10-16T04:40:41;15.20;99.90
7572;DHT22;3827;49.928;8.548;2022-10-16T04:43:08;15.20;99.90
7572;DHT22;3827;49.928;8.548;2022-10-16T04:45:35;15.20;99.90
7572;DHT22;3827;49.928;8.548;2022-10-16T04:48:03;15.20;99.90
7572;DHT22;3827;49.928;8.548;2022-10-16T04:50:30;15.20;99.90
7572;DHT22;3827;49.928;8.548;2022-10-16T04:52:57;15.20;99.90
7572;DHT22;3827;49.928;8.548;2022-10-16T04:55:23;15.20;99.90
7572;DHT22;3827;49.928;8.548;2022-10-16T04:57:50;15.20;99.90
7572;DHT22;3827;49.928;8.548;2022-10-16T05:00:17;15.00;99.90
7572;DHT22;3827;49.928;8.548;2022-10-16T05:02:44;15.10;99.90
7572;DHT22;3827;49.928;8.548;2022-10-16T05:05:12;15.10;99.90
7572;DHT22;3827;49.928;8.548;2022-10-16T05:07:39;15.00;99.90
7572;DHT22;3827;49.928;8.548;2022-10-16T05:10:07;15.00;99.90
7572;DHT22;3827;49.928;8.548;2022-10-16T05:12:33;15.00;99.90
7572;DHT22;3827;49.928;8.548;2022-10-16T05:15:00;15.20;99.90
7572;DHT22;3827;49.928;8.548;2022-10-16T05:17:27;15.00;99.90
7572;DHT22;3827;49.928;8.548;2022-10-16T05:19:54;15.00;99.90
7572;DHT22;3827;49.928;8.548;2022-10-16T05:22:22;15.00;99.90
7572;DHT22;3827;49.928;8.548;2022-10-16T05:24:50;15.00;99.90
7572;DHT22;3827;49.928;8.548;2022-10-16T05:27:17;15.00;99.90
7572;DHT22;3827;49.928;8.548;2022-10-16T05:29:45;15.00;99.90
7572;DHT22;3827;49.928;8.548;2022-10-16T05:32:13;15.00;99.90
7572;DHT22;3827;49.928;8.548;2022-10-16T05:34:40;15.00;99.90
7572;DHT22;3827;49.928;8.548;2022-10-16T05:37:07;15.00;99.90
7572;DHT22;3827;49.928;8.548;2022-10-16T05:39:35;15.00;99.90
7572;DHT22;3827;49.928;8.548;2022-10-16T05:42:03;14.90;99.90
7572;DHT22;3827;49.928;8.548;2022-10-16T05:44:30;14.90;99.90
7572;DHT22;3827;49.928;8.548;2022-10-16T05:46:56;14.80;99.90
7572;DHT22;3827;49.928;8.548;2022-10-16T05:49:24;14.80;99.90
7572;DHT22;3827;49.928;8.548;2022-10-16T05:51:51;14.80;99.90
7572;DHT22;3827;49.928;8.548;2022-10-16T05:54:17;14.70;99.90
7572;DHT22;3827;49.928;8.548;2022-10-16T05:56:46;14.70;99.90
7572;DHT22;3827;49.928;8.548;2022-10-16T05:59:13;14.70;99.90
7572;DHT22;3827;49.928;8.548;2022-10-16T06:01:40;14.70;99.90
7572;DHT22;3827;49.928;8.548;2022-10-16T06:04:08;14.70;99.90
7572;DHT22;3827;49.928;8.548;2022-10-16T06:06:35;14.80;99.90
7572;DHT22;3827;49.928;8.548;2022-10-16T06:09:03;14.80;99.90
7572;DHT22;3827;49.928;8.548;2022-10-16T06:11:32;14.80;99.90
7572;DHT22;3827;49.928;8.548;2022-10-16T06:14:01;14.80;99.90
7572;DHT22;3827;49.928;8.548;2022-10-16T06:16:32;14.90;99.90
7572;DHT22;3827;49.928;8.548;2022-10-16T06:19:00;14.90;99.90
7572;DHT22;3827;49.928;8.548;2022-10-16T06:21:28;14.90;99.90
7572;DHT22;3827;49.928;8.548;2022-10-16T06:23:56;15.00;99.90
7572;DHT22;3827;49.928;8.548;2022-10-16T06:26:24;15.00;99.90
7572;DHT22;3827;49.928;8.548;2022-10-16T06:28:53;15.00;99.90
7572;DHT22;3827;49.928;8.548;2022-10-16T06:31:22;15.10;99.90
7572;DHT22;3827;49.928;8.548;2022-10-16T06:33:53;15.20;99.90
7572;DHT22;3827;49.928;8.548;2022-10-16T06:36:20;15.10;99.90
7572;DHT22;3827;49.928;8.548;2022-10-16T06:38:47;15.20;99.90
7572;DHT22;3827;49.928;8.548;2022-10-16T06:41:16;15.20;99.90
7572;DHT22;3827;49.928;8.548;2022-10-16T06:43:44;15.20;99.90
7572;DHT22;3827;49.928;8.548;2022-10-16T06:46:12;15.20;99.90
7572;DHT22;3827;49.928;8.548;2022-10-16T06:48:41;15.20;99.90
7572;DHT22;3827;49.928;8.548;2022-10-16T06:51:10;15.20;99.90
7572;DHT22;3827;49.928;8.548;2022-10-16T06:53:38;15.30;99.90
7572;DHT22;3827;49.928;8.548;2022-10-16T06:56:08;15.30;99.90
7572;DHT22;3827;49.928;8.548;2022-10-16T06:58:36;15.30;99.90
7572;DHT22;3827;49.928;8.548;2022-10-16T07:01:03;15.40;99.90
7572;DHT22;3827;49.928;8.548;2022-10-16T07:03:30;15.40;99.90
7572;DHT22;3827;49.928;8.548;2022-10-16T07:06:01;15.40;99.90
7572;DHT22;3827;49.928;8.548;2022-10-16T07:08:31;15.40;99.90
7572;DHT22;3827;49.928;8.548;2022-10-16T07:10:59;15.40;99.90
7572;DHT22;3827;49.928;8.548;2022-10-16T07:13:26;15.40;99.90
7572;DHT22;3827;49.928;8.548;2022-10-16T07:15:53;15.40;99.90
7572;DHT22;3827;49.928;8.548;2022-10-16T07:18:20;15.50;99.90
7572;DHT22;3827;49.928;8.548;2022-10-16T07:20:51;15.50;99.90
7572;DHT22;3827;49.928;8.548;2022-10-16T07:23:19;15.50;99.90
7572;DHT22;3827;49.928;8.548;2022-10-16T07:25:53;15.50;99.90
7572;DHT22;3827;49.928;8.548;2022-10-16T07:28:21;15.50;99.90
7572;DHT22;3827;49.928;8.548;2022-10-16T07:30:48;15.50;99.90
7572;DHT22;3827;49.928;8.548;2022-10-16T07:33:15;15.50;99.90
7572;DHT22;3827;49.928;8.548;2022-10-16T07:35:48;15.50;99.90
7572;DHT22;3827;49.928;8.548;2022-10-16T07:38:15;15.50;99.90
7572;DHT22;3827;49.928;8.548;2022-10-16T07:40:44;15.40;99.90
7572;DHT22;3827;49.928;8.548;2022-10-16T07:43:11;15.40;99.90
7572;DHT22;3827;49.928;8.548;2022-10-16T07:45:46;15.40;99.90
7572;DHT22;3827;49.928;8.548;2022-10-16T07:48:13;15.50;99.90
7572;DHT22;3827;49.928;8.548;2022-10-16T07:50:40;15.50;99.90
7572;DHT22;3827;49.928;8.548;2022-10-16T07:53:07;15.60;99.90
7572;DHT22;3827;49.928;8.548;2022-10-16T07:55:34;15.60;99.90
7572;DHT22;3827;49.928;8.548;2022-10-16T07:58:03;15.70;99.90
7572;DHT22;3827;49.928;8.548;2022-10-16T08:00:30;15.70;99.90
7572;DHT22;3827;49.928;8.548;2022-10-16T08:02:57;15.70;99.90
7572;DHT22;3827;49.928;8.548;2022-10-16T08:05:26;15.70;99.90
7572;DHT22;3827;49.928;8.548;2022-10-16T08:07:53;15.60;99.90
7572;DHT22;3827;49.928;8.548;2022-10-16T08:10:22;15.70;99.90
7572;DHT22;3827;49.928;8.548;2022-10-16T08:12:49;15.70;99.90
7572;DHT22;3827;49.928;8.548;2022-10-16T08:15:18;15.80;99.90
7572;DHT22;3827;49.928;8.548;2022-10-16T08:17:54;15.80;99.90
7572;DHT22;3827;49.928;8.548;2022-10-16T08:20:21;15.80;99.90
7572;DHT22;3827;49.928;8.548;2022-10-16T08:22:48;15.90;99.90
7572;DHT22;3827;49.928;8.548;2022-10-16T08:25:15;15.90;99.90
7572;DHT22;3827;49.928;8.548;2022-10-16T08:27:41;15.90;99.90
7572;DHT22;3827;49.928;8.548;2022-10-16T08:30:10;15.90;99.90
7572;DHT22;3827;49.928;8.548;2022-10-16T08:32:39;14.50;99.90
7572;DHT22;3827;49.928;8.548;2022-10-16T08:35:07;15.80;99.90
7572;DHT22;3827;49.928;8.548;2022-10-16T08:37:35;15.80;99.90
7572;DHT22;3827;49.928;8.548;2022-10-16T08:40:03;15.80;99.90
7572;DHT22;3827;49.928;8.548;2022-10-16T08:42:42;15.80;99.90
7572;DHT22;3827;49.928;8.548;2022-10-16T08:45:24;15.80;99.90
7572;DHT22;3827;49.928;8.548;2022-10-16T08:48:04;15.80;99.90
7572;DHT22;3827;49.928;8.548;2022-10-16T08:50:37;15.90;99.90
7572;DHT22;3827;49.928;8.548;2022-10-16T08:53:05;16.00;99.90
7572;DHT22;3827;49.928;8.548;2022-10-16T08:55:37;16.00;99.90
7572;DHT22;3827;49.928;8.548;2022-10-16T08:58:11;16.00;99.90
7572;DHT22;3827;49.928;8.548;2022-10-16T09:00:40;16.10;99.90
7572;DHT22;3827;49.928;8.548;2022-10-16T09:03:17;16.10;99.90
7572;DHT22;3827;49.928;8.548;2022-10-16T09:05:57;16.10;99.90
7572;DHT22;3827;49.928;8.548;2022-10-16T09:08:33;16.20;99.90
7572;DHT22;3827;49.928;8.548;2022-10-16T09:11:08;16.20;99.90
7572;DHT22;3827;49.928;8.548;2022-10-16T09:13:43;16.30;99.90
7572;DHT22;3827;49.928;8.548;2022-10-16T09:16:18;16.30;99.90
7572;DHT22;3827;49.928;8.548;2022-10-16T09:18:53;16.30;99.90
7572;DHT22;3827;49.928;8.548;2022-10-16T09:21:24;16.40;99.90
7572;DHT22;3827;49.928;8.548;2022-10-16T09:23:52;16.50;99.90
7572;DHT22;3827;49.928;8.548;2022-10-16T09:26:20;16.50;99.90
7572;DHT22;3827;49.928;8.548;2022-10-16T09:28:47;16.60;99.90
7572;DHT22;3827;49.928;8.548;2022-10-16T09:31:19;16.50;99.90
7572;DHT22;3827;49.928;8.548;2022-10-16T09:33:51;16.60;99.90
7572;DHT22;3827;49.928;8.548;2022-10-16T09:36:20;16.80;99.90
7572;DHT22;3827;49.928;8.548;2022-10-16T09:38:47;17.20;99.90
7572;DHT22;3827;49.928;8.548;2022-10-16T09:41:17;17.20;99.90
7572;DHT22;3827;49.928;8.548;2022-10-16T09:43:52;17.60;99.90
7572;DHT22;3827;49.928;8.548;2022-10-16T09:46:26;17.80;99.90
7572;DHT22;3827;49.928;8.548;2022-10-16T09:48:57;17.70;99.90
7572;DHT22;3827;49.928;8.548;2022-10-16T09:51:27;17.90;99.90
7572;DHT22;3827;49.928;8.548;2022-10-16T09:53:56;17.90;99.90
7572;DHT22;3827;49.928;8.548;2022-10-16T09:56:25;17.90;99.90
7572;DHT22;3827;49.928;8.548;2022-10-16T09:58:54;18.00;99.90
7572;DHT22;3827;49.928;8.548;2022-10-16T10:01:23;18.30;99.90
7572;DHT22;3827;49.928;8.548;2022-10-16T10:03:50;18.40;99.90
7572;DHT22;3827;49.928;8.548;2022-10-16T10:06:29;18.40;99.90
7572;DHT22;3827;49.928;8.548;2022-10-16T10:09:02;18.20;99.90
7572;DHT22;3827;49.928;8.548;2022-10-16T10:11:40;18.20;99.90
7572;DHT22;3827;49.928;8.548;2022-10-16T10:14:17;18.20;99.90
7572;DHT22;3827;49.928;8.548;2022-10-16T10:16:45;18.10;99.90
7572;DHT22;3827;49.928;8.548;2022-10-16T10:19:16;18.10;99.90
7572;DHT22;3827;49.928;8.548;2022-10-16T10:21:45;18.00;99.90
7572;DHT22;3827;49.928;8.548;2022-10-16T10:24:13;18.00;99.90
7572;DHT22;3827;49.928;8.548;2022-10-16T10:26:48;18.10;99.90
7572;DHT22;3827;49.928;8.548;2022-10-16T10:29:21;18.30;99.90
7572;DHT22;3827;49.928;8.548;2022-10-16T10:31:55;18.50;99.90
7572;DHT22;3827;49.928;8.548;2022-10-16T10:34:35;18.50;99.90
7572;DHT22;3827;49.928;8.548;2022-10-16T10:37:21;18.30;99.90
7572;DHT22;3827;49.928;8.548;2022-10-16T10:39:56;18.70;99.90
7572;DHT22;3827;49.928;8.548;2022-10-16T10:42:31;19.10;99.90
7572;DHT22;3827;49.928;8.548;2022-10-16T10:45:19;19.40;99.90
7572;DHT22;3827;49.928;8.548;2022-10-16T10:47:59;19.40;99.90
7572;DHT22;3827;49.928;8.548;2022-10-16T10:50:36;19.20;99.90
7572;DHT22;3827;49.928;8.548;2022-10-16T10:53:13;19.30;99.90
7572;DHT22;3827;49.928;8.548;2022-10-16T10:55:48;19.20;99.90
7572;DHT22;3827;49.928;8.548;2022-10-16T10:58:42;19.20;99.90
7572;DHT22;3827;49.928;8.548;2022-10-16T11:01:14;19.40;99.90
7572;DHT22;3827;49.928;8.548;2022-10-16T11:06:38;20.00;99.90
7572;DHT22;3827;49.928;8.548;2022-10-16T11:09:12;20.00;99.90
7572;DHT22;3827;49.928;8.548;2022-10-16T11:11:43;20.10;99.90
7572;DHT22;3827;49.928;8.548;2022-10-16T11:14:14;20.20;99.90
7572;DHT22;3827;49.928;8.548;2022-10-16T11:16:47;20.30;99.90
7572;DHT22;3827;49.928;8.548;2022-10-16T11:19:28;20.30;99.90
7572;DHT22;3827;49.928;8.548;2022-10-16T11:22:03;20.10;99.90
7572;DHT22;3827;49.928;8.548;2022-10-16T11:24:37;20.40;99.90
7572;DHT22;3827;49.928;8.548;2022-10-16T11:27:09;20.30;99.90
7572;DHT22;3827;49.928;8.548;2022-10-16T11:29:45;20.30;99.90
7572;DHT22;3827;49.928;8.548;2022-10-16T11:32:20;20.60;99.90
7572;DHT22;3827;49.928;8.548;2022-10-16T11:34:53;20.30;99.90
7572;DHT22;3827;49.928;8.548;2022-10-16T11:37:26;20.20;99.90
7572;DHT22;3827;49.928;8.548;2022-10-16T11:40:00;20.40;99.90
7572;DHT22;3827;49.928;8.548;2022-10-16T11:42:33;20.40;99.90
7572;DHT22;3827;49.928;8.548;2022-10-16T11:45:15;20.60;99.90
7572;DHT22;3827;49.928;8.548;2022-10-16T11:47:53;20.70;99.90
7572;DHT22;3827;49.928;8.548;2022-10-16T11:50:25;20.90;99.90
7572;DHT22;3827;49.928;8.548;2022-10-16T11:52:56;21.00;99.90
7572;DHT22;3827;49.928;8.548;2022-10-16T11:55:32;21.00;99.90
7572;DHT22;3827;49.928;8.548;2022-10-16T11:58:05;20.90;99.90
7572;DHT22;3827;49.928;8.548;2022-10-16T12:00:37;21.00;99.90
7572;DHT22;3827;49.928;8.548;2022-10-16T12:03:14;21.30;99.90
7572;DHT22;3827;49.928;8.548;2022-10-16T12:08:34;21.70;99.90
7572;DHT22;3827;49.928;8.548;2022-10-16T12:11:20;22.00;99.90
7572;DHT22;3827;49.928;8.548;2022-10-16T12:13:48;22.40;99.90
7572;DHT22;3827;49.928;8.548;2022-10-16T12:16:23;22.50;99.90
7572;DHT22;3827;49.928;8.548;2022-10-16T12:19:07;22.90;99.90
7572;DHT22;3827;49.928;8.548;2022-10-16T12:21:36;23.10;99.90
7572;DHT22;3827;49.928;8.548;2022-10-16T12:24:04;22.70;99.90
7572;DHT22;3827;49.928;8.548;2022-10-16T12:26:36;23.00;99.90
7572;DHT22;3827;49.928;8.548;2022-10-16T12:29:14;23.20;99.90
7572;DHT22;3827;49.928;8.548;2022-10-16T12:31:47;23.10;99.90
7572;DHT22;3827;49.928;8.548;2022-10-16T12:34:23;23.20;99.90
7572;DHT22;3827;49.928;8.548;2022-10-16T12:36:53;23.30;99.90
7572;DHT22;3827;49.928;8.548;2022-10-16T12:39:22;23.60;99.90
7572;DHT22;3827;49.928;8.548;2022-10-16T12:42:02;23.80;99.90
7572;DHT22;3827;49.928;8.548;2022-10-16T12:44:32;23.80;99.90
7572;DHT22;3827;49.928;8.548;2022-10-16T12:47:00;23.30;99.90
7572;DHT22;3827;49.928;8.548;2022-10-16T12:49:32;22.90;99.90
7572;DHT22;3827;49.928;8.548;2022-10-16T12:51:59;22.70;99.90
7572;DHT22;3827;49.928;8.548;2022-10-16T12:54:29;22.40;99.90
7572;DHT22;3827;49.928;8.548;2022-10-16T12:59:59;22.10;99.90
7572;DHT22;3827;49.928;8.548;2022-10-16T13:02:53;21.80;99.90
7572;DHT22;3827;49.928;8.548;2022-10-16T13:05:43;21.70;99.90
7572;DHT22;3827;49.928;8.548;2022-10-16T13:11:15;21.30;99.90
7572;DHT22;3827;49.928;8.548;2022-10-16T13:16:57;21.00;99.90
7572;DHT22;3827;49.928;8.548;2022-10-16T13:19:33;20.80;99.90
7572;DHT22;3827;49.928;8.548;2022-10-16T13:22:05;20.70;99.90
7572;DHT22;3827;49.928;8.548;2022-10-16T13:24:49;20.80;99.90
7572;DHT22;3827;49.928;8.548;2022-10-16T13:27:25;20.80;99.90
7572;DHT22;3827;49.928;8.548;2022-10-16T13:30:01;20.90;99.90
7572;DHT22;3827;49.928;8.548;2022-10-16T13:32:30;21.00;99.90
7572;DHT22;3827;49.928;8.548;2022-10-16T13:34:57;21.10;99.90
7572;DHT22;3827;49.928;8.548;2022-10-16T13:37:26;21.10;99.90
7572;DHT22;3827;49.928;8.548;2022-10-16T13:40:06;21.10;99.90
7572;DHT22;3827;49.928;8.548;2022-10-16T13:42:38;21.10;99.90
7572;DHT22;3827;49.928;8.548;2022-10-16T13:45:17;21.00;99.90
7572;DHT22;3827;49.928;8.548;2022-10-16T13:47:45;21.00;99.90
7572;DHT22;3827;49.928;8.548;2022-10-16T13:50:14;21.00;99.90
7572;DHT22;3827;49.928;8.548;2022-10-16T13:52:41;20.90;99.90
7572;DHT22;3827;49.928;8.548;2022-10-16T13:55:11;20.80;99.90
7572;DHT22;3827;49.928;8.548;2022-10-16T13:57:38;20.70;99.90
7572;DHT22;3827;49.928;8.548;2022-10-16T14:00:18;20.70;99.90
7572;DHT22;3827;49.928;8.548;2022-10-16T14:02:51;20.60;99.90
7572;DHT22;3827;49.928;8.548;2022-10-16T14:05:19;20.50;99.90
7572;DHT22;3827;49.928;8.548;2022-10-16T14:07:49;20.50;99.90
7572;DHT22;3827;49.928;8.548;2022-10-16T14:10:23;20.40;99.90
7572;DHT22;3827;49.928;8.548;2022-10-16T14:13:01;20.40;99.90
7572;DHT22;3827;49.928;8.548;2022-10-16T14:15:29;20.40;99.90
7572;DHT22;3827;49.928;8.548;2022-10-16T14:17:59;20.40;99.90
7572;DHT22;3827;49.928;8.548;2022-10-16T14:20:28;20.50;99.90
7572;DHT22;3827;49.928;8.548;2022-10-16T14:23:00;20.60;99.90
7572;DHT22;3827;49.928;8.548;2022-10-16T14:25:30;20.70;99.90
7572;DHT22;3827;49.928;8.548;2022-10-16T14:28:00;20.70;99.90
7572;DHT22;3827;49.928;8.548;2022-10-16T14:30:27;20.80;99.90
7572;DHT22;3827;49.928;8.548;2022-10-16T14:32:59;20.90;99.90
7572;DHT22;3827;49.928;8.548;2022-10-16T14:35:29;20.90;99.90
7572;DHT22;3827;49.928;8.548;2022-10-16T14:37:57;21.00;99.90
7572;DHT22;3827;49.928;8.548;2022-10-16T14:40:27;21.00;99.90
7572;DHT22;3827;49.928;8.548;2022-10-16T14:42:54;21.00;99.90
7572;DHT22;3827;49.928;8.548;2022-10-16T14:45:23;21.00;99.90
7572;DHT22;3827;49.928;8.548;2022-10-16T14:47:52;21.00;99.90
7572;DHT22;3827;49.928;8.548;2022-10-16T14:50:20;20.90;99.90
7572;DHT22;3827;49.928;8.548;2022-10-16T14:52:48;20.80;99.90
7572;DHT22;3827;49.928;8.548;2022-10-16T14:55:17;20.70;99.90
7572;DHT22;3827;49.928;8.548;2022-10-16T14:57:45;20.70;99.90
7572;DHT22;3827;49.928;8.548;2022-10-16T15:00:17;20.70;99.90
7572;DHT22;3827;49.928;8.548;2022-10-16T15:02:45;20.60;99.90
7572;DHT22;3827;49.928;8.548;2022-10-16T15:05:15;20.60;99.90
7572;DHT22;3827;49.928;8.548;2022-10-16T15:07:44;20.70;99.90
7572;DHT22;3827;49.928;8.548;2022-10-16T15:10:11;20.80;99.90
7572;DHT22;3827;49.928;8.548;2022-10-16T15:12:38;20.70;99.90
7572;DHT22;3827;49.928;8.548;2022-10-16T15:15:23;20.70;99.90
7572;DHT22;3827;49.928;8.548;2022-10-16T15:17:52;20.70;99.90
7572;DHT22;3827;49.928;8.548;2022-10-16T15:20:21;20.70;99.90
7572;DHT22;3827;49.928;8.548;2022-10-16T15:22:50;20.80;99.90
7572;DHT22;3827;49.928;8.548;2022-10-16T15:25:30;20.80;99.90
7572;DHT22;3827;49.928;8.548;2022-10-16T15:27:57;20.70;99.90
7572;DHT22;3827;49.928;8.548;2022-10-16T15:30:24;20.70;99.90
7572;DHT22;3827;49.928;8.548;2022-10-16T15:32:51;20.70;99.90
7572;DHT22;3827;49.928;8.548;2022-10-16T15:35:18;20.60;99.90
7572;DHT22;3827;49.928;8.548;2022-10-16T15:37:46;20.60;99.90
7572;DHT22;3827;49.928;8.548;2022-10-16T15:40:15;20.50;99.90
7572;DHT22;3827;49.928;8.548;2022-10-16T15:42:42;20.40;99.90
7572;DHT22;3827;49.928;8.548;2022-10-16T15:45:10;20.30;99.90
7572;DHT22;3827;49.928;8.548;2022-10-16T15:47:37;20.20;99.90
7572;DHT22;3827;49.928;8.548;2022-10-16T15:50:06;20.10;99.90
7572;DHT22;3827;49.928;8.548;2022-10-16T15:52:33;20.00;99.90
7572;DHT22;3827;49.928;8.548;2022-10-16T15:55:00;19.80;99.90
7572;DHT22;3827;49.928;8.548;2022-10-16T15:57:29;19.70;99.90
7572;DHT22;3827;49.928;8.548;2022-10-16T15:59:56;19.60;99.90
7572;DHT22;3827;49.928;8.548;2022-10-16T16:02:23;19.60;99.90
7572;DHT22;3827;49.928;8.548;2022-10-16T16:04:50;19.50;99.90
7572;DHT22;3827;49.928;8.548;2022-10-16T16:07:17;19.40;99.90
7572;DHT22;3827;49.928;8.548;2022-10-16T16:09:44;19.40;99.90
7572;DHT22;3827;49.928;8.548;2022-10-16T16:12:11;19.30;99.90
7572;DHT22;3827;49.928;8.548;2022-10-16T16:14:40;19.30;99.90
7572;DHT22;3827;49.928;8.548;2022-10-16T16:17:07;19.20;99.90
7572;DHT22;3827;49.928;8.548;2022-10-16T16:19:33;19.10;99.90
7572;DHT22;3827;49.928;8.548;2022-10-16T16:22:00;19.00;99.90
7572;DHT22;3827;49.928;8.548;2022-10-16T16:24:27;18.90;99.90
7572;DHT22;3827;49.928;8.548;2022-10-16T16:26:54;18.80;99.90
7572;DHT22;3827;49.928;8.548;2022-10-16T16:29:21;18.80;99.90
7572;DHT22;3827;49.928;8.548;2022-10-16T16:31:49;18.70;99.90
7572;DHT22;3827;49.928;8.548;2022-10-16T16:34:23;18.70;99.90